sensor_id;sensor_type;location;lat;lon;timestamp;P1;durP1;ratioP1;P2;durP2;ratioP2
60169;SDS011;46042;49.444;6.862;2022-12-10T00:02:06;15.47;;;9.43;;
60169;SDS011;46042;49.444;6.862;2022-12-10T00:04:32;16.80;;;9.30;;
60169;SDS011;46042;49.444;6.862;2022-12-10T00:06:59;22.60;;;11.30;;
60169;SDS011;46042;49.444;6.862;2022-12-10T00:09:26;19.47;;;10.10;;
60169;SDS011;46042;49.444;6.862;2022-12-10T00:11:52;21.10;;;11.93;;
60169;SDS011;46042;49.444;6.862;2022-12-10T00:14:19;23.13;;;11.33;;
60169;SDS011;46042;49.444;6.862;2022-12-10T00:16:45;26.10;;;12.73;;
60169;SDS011;46042;49.444;6.862;2022-12-10T00:19:12;26.30;;;11.93;;
60169;SDS011;46042;49.444;6.862;2022-12-10T00:21:39;21.80;;;12.53;;
60169;SDS011;46042;49.444;6.862;2022-12-10T00:24:06;17.60;;;9.83;;
60169;SDS011;46042;49.444;6.862;2022-12-10T00:26:34;22.53;;;10.77;;
60169;SDS011;46042;49.444;6.862;2022-12-10T00:29:03;18.97;;;9.57;;
60169;SDS011;46042;49.444;6.862;2022-12-10T00:31:32;18.70;;;9.77;;
60169;SDS011;46042;49.444;6.862;2022-12-10T00:34:03;15.33;;;8.37;;
60169;SDS011;46042;49.444;6.862;2022-12-10T00:36:33;15.35;;;8.27;;
60169;SDS011;46042;49.444;6.862;2022-12-10T00:39:01;14.33;;;7.83;;
60169;SDS011;46042;49.444;6.862;2022-12-10T00:41:29;18.50;;;8.73;;
60169;SDS011;46042;49.444;6.862;2022-12-10T00:43:55;15.90;;;8.13;;
60169;SDS011;46042;49.444;6.862;2022-12-10T00:46:22;16.23;;;9.10;;
60169;SDS011;46042;49.444;6.862;2022-12-10T00:48:49;18.70;;;9.73;;
60169;SDS011;46042;49.444;6.862;2022-12-10T00:51:20;24.47;;;10.70;;
60169;SDS011;46042;49.444;6.862;2022-12-10T00:53:49;18.90;;;9.33;;
60169;SDS011;46042;49.444;6.862;2022-12-10T00:56:19;14.03;;;7.90;;
60169;SDS011;46042;49.444;6.862;2022-12-10T00:58:50;15.17;;;8.50;;
60169;SDS011;46042;49.444;6.862;2022-12-10T01:01:27;19.03;;;7.63;;
60169;SDS011;46042;49.444;6.862;2022-12-10T01:03:55;24.13;;;7.97;;
60169;SDS011;46042;49.444;6.862;2022-12-10T01:06:30;12.03;;;7.17;;
60169;SDS011;46042;49.444;6.862;2022-12-10T01:09:00;12.13;;;7.47;;
60169;SDS011;46042;49.444;6.862;2022-12-10T01:11:31;14.63;;;7.23;;
60169;SDS011;46042;49.444;6.862;2022-12-10T01:14:03;12.10;;;7.60;;
60169;SDS011;46042;49.444;6.862;2022-12-10T01:16:31;14.37;;;7.80;;
60169;SDS011;46042;49.444;6.862;2022-12-10T01:18:58;13.93;;;7.80;;
60169;SDS011;46042;49.444;6.862;2022-12-10T01:21:25;13.43;;;7.80;;
60169;SDS011;46042;49.444;6.862;2022-12-10T01:23:54;12.47;;;6.90;;
60169;SDS011;46042;49.444;6.862;2022-12-10T01:26:23;14.03;;;6.87;;
60169;SDS011;46042;49.444;6.862;2022-12-10T01:28:55;13.30;;;7.17;;
60169;SDS011;46042;49.444;6.862;2022-12-10T01:31:27;9.60;;;5.63;;
60169;SDS011;46042;49.444;6.862;2022-12-10T01:33:55;12.80;;;7.17;;
60169;SDS011;46042;49.444;6.862;2022-12-10T01:36:25;9.70;;;5.80;;
60169;SDS011;46042;49.444;6.862;2022-12-10T01:38:58;13.20;;;6.57;;
60169;SDS011;46042;49.444;6.862;2022-12-10T01:41:30;10.13;;;5.77;;
60169;SDS011;46042;49.444;6.862;2022-12-10T01:44:03;14.37;;;6.57;;
60169;SDS011;46042;49.444;6.862;2022-12-10T01:46:35;12.03;;;6.27;;
60169;SDS011;46042;49.444;6.862;2022-12-10T01:49:04;10.93;;;6.03;;
60169;SDS011;46042;49.444;6.862;2022-12-10T01:51:33;11.57;;;5.90;;
60169;SDS011;46042;49.444;6.862;2022-12-10T01:54:03;11.73;;;6.77;;
60169;SDS011;46042;49.444;6.862;2022-12-10T01:56:31;13.10;;;7.07;;
60169;SDS011;46042;49.444;6.862;2022-12-10T01:59:03;16.90;;;6.67;;
60169;SDS011;46042;49.444;6.862;2022-12-10T02:01:32;11.20;;;6.07;;
60169;SDS011;46042;49.444;6.862;2022-12-10T02:04:23;12.43;;;6.27;;
60169;SDS011;46042;49.444;6.862;2022-12-10T02:10:02;12.30;;;6.27;;
60169;SDS011;46042;49.444;6.862;2022-12-10T02:15:22;8.43;;;5.33;;
60169;SDS011;46042;49.444;6.862;2022-12-10T02:18:07;12.63;;;6.60;;
60169;SDS011;46042;49.444;6.862;2022-12-10T02:20:40;9.20;;;5.20;;
60169;SDS011;46042;49.444;6.862;2022-12-10T02:23:14;10.43;;;6.27;;
60169;SDS011;46042;49.444;6.862;2022-12-10T02:28:33;13.13;;;6.40;;
60169;SDS011;46042;49.444;6.862;2022-12-10T02:31:06;11.87;;;5.77;;
60169;SDS011;46042;49.444;6.862;2022-12-10T02:33:37;9.00;;;5.33;;
60169;SDS011;46042;49.444;6.862;2022-12-10T02:36:09;10.17;;;5.83;;
60169;SDS011;46042;49.444;6.862;2022-12-10T02:38:39;12.40;;;5.50;;
60169;SDS011;46042;49.444;6.862;2022-12-10T02:41:08;14.37;;;6.07;;
60169;SDS011;46042;49.444;6.862;2022-12-10T02:43:43;8.40;;;4.97;;
60169;SDS011;46042;49.444;6.862;2022-12-10T02:46:12;9.23;;;5.78;;
60169;SDS011;46042;49.444;6.862;2022-12-10T02:48:39;7.53;;;4.70;;
60169;SDS011;46042;49.444;6.862;2022-12-10T02:51:07;14.20;;;5.47;;
60169;SDS011;46042;49.444;6.862;2022-12-10T02:53:33;11.30;;;5.80;;
60169;SDS011;46042;49.444;6.862;2022-12-10T02:56:21;7.73;;;4.67;;
60169;SDS011;46042;49.444;6.862;2022-12-10T02:59:04;7.23;;;4.93;;
60169;SDS011;46042;49.444;6.862;2022-12-10T03:04:28;7.57;;;4.63;;
60169;SDS011;46042;49.444;6.862;2022-12-10T03:07:06;9.03;;;4.70;;
60169;SDS011;46042;49.444;6.862;2022-12-10T03:09:42;8.10;;;4.30;;
60169;SDS011;46042;49.444;6.862;2022-12-10T03:12:25;10.20;;;4.97;;
60169;SDS011;46042;49.444;6.862;2022-12-10T03:15:01;7.63;;;4.77;;
60169;SDS011;46042;49.444;6.862;2022-12-10T03:17:33;8.73;;;4.93;;
60169;SDS011;46042;49.444;6.862;2022-12-10T03:20:00;8.03;;;5.00;;
60169;SDS011;46042;49.444;6.862;2022-12-10T03:22:29;7.10;;;5.07;;
60169;SDS011;46042;49.444;6.862;2022-12-10T03:24:58;8.80;;;4.37;;
60169;SDS011;46042;49.444;6.862;2022-12-10T03:27:27;8.50;;;5.10;;
60169;SDS011;46042;49.444;6.862;2022-12-10T03:29:56;8.63;;;5.03;;
60169;SDS011;46042;49.444;6.862;2022-12-10T03:32:24;8.67;;;5.30;;
60169;SDS011;46042;49.444;6.862;2022-12-10T03:34:53;9.03;;;4.67;;
60169;SDS011;46042;49.444;6.862;2022-12-10T03:37:22;8.40;;;4.50;;
60169;SDS011;46042;49.444;6.862;2022-12-10T03:39:50;13.40;;;5.07;;
60169;SDS011;46042;49.444;6.862;2022-12-10T03:42:17;11.13;;;4.80;;
60169;SDS011;46042;49.444;6.862;2022-12-10T03:44:44;9.47;;;4.93;;
60169;SDS011;46042;49.444;6.862;2022-12-10T03:47:12;10.40;;;4.60;;
60169;SDS011;46042;49.444;6.862;2022-12-10T03:49:40;8.67;;;4.33;;
60169;SDS011;46042;49.444;6.862;2022-12-10T03:52:08;8.60;;;4.70;;
60169;SDS011;46042;49.444;6.862;2022-12-10T03:54:36;11.00;;;5.73;;
60169;SDS011;46042;49.444;6.862;2022-12-10T03:57:02;7.87;;;4.60;;
60169;SDS011;46042;49.444;6.862;2022-12-10T03:59:29;8.03;;;4.83;;
60169;SDS011;46042;49.444;6.862;2022-12-10T04:01:56;7.10;;;4.40;;
60169;SDS011;46042;49.444;6.862;2022-12-10T04:04:22;9.20;;;4.10;;
60169;SDS011;46042;49.444;6.862;2022-12-10T04:06:49;7.47;;;4.37;;
60169;SDS011;46042;49.444;6.862;2022-12-10T04:09:15;9.30;;;4.90;;
60169;SDS011;46042;49.444;6.862;2022-12-10T04:11:43;8.37;;;5.10;;
60169;SDS011;46042;49.444;6.862;2022-12-10T04:14:10;9.40;;;5.37;;
60169;SDS011;46042;49.444;6.862;2022-12-10T04:16:56;8.00;;;5.03;;
60169;SDS011;46042;49.444;6.862;2022-12-10T04:19:23;8.17;;;5.63;;
60169;SDS011;46042;49.444;6.862;2022-12-10T04:21:50;9.87;;;5.30;;
60169;SDS011;46042;49.444;6.862;2022-12-10T04:24:35;6.70;;;4.13;;
60169;SDS011;46042;49.444;6.862;2022-12-10T04:27:27;7.63;;;5.00;;
60169;SDS011;46042;49.444;6.862;2022-12-10T04:29:56;8.77;;;4.87;;
60169;SDS011;46042;49.444;6.862;2022-12-10T04:32:24;10.03;;;5.13;;
60169;SDS011;46042;49.444;6.862;2022-12-10T04:34:53;9.30;;;5.27;;
60169;SDS011;46042;49.444;6.862;2022-12-10T04:37:20;10.70;;;5.70;;
60169;SDS011;46042;49.444;6.862;2022-12-10T04:39:47;8.13;;;4.90;;
60169;SDS011;46042;49.444;6.862;2022-12-10T04:42:15;9.03;;;5.37;;
60169;SDS011;46042;49.444;6.862;2022-12-10T04:44:42;8.73;;;5.17;;
60169;SDS011;46042;49.444;6.862;2022-12-10T04:47:09;7.70;;;5.57;;
60169;SDS011;46042;49.444;6.862;2022-12-10T04:49:37;10.33;;;5.10;;
60169;SDS011;46042;49.444;6.862;2022-12-10T04:52:04;11.00;;;5.57;;
60169;SDS011;46042;49.444;6.862;2022-12-10T04:54:32;7.10;;;5.00;;
60169;SDS011;46042;49.444;6.862;2022-12-10T04:57:04;8.00;;;4.80;;
60169;SDS011;46042;49.444;6.862;2022-12-10T04:59:31;10.80;;;6.30;;
60169;SDS011;46042;49.444;6.862;2022-12-10T05:01:58;12.97;;;5.53;;
60169;SDS011;46042;49.444;6.862;2022-12-10T05:04:25;11.77;;;5.13;;
60169;SDS011;46042;49.444;6.862;2022-12-10T05:06:52;7.93;;;5.30;;
60169;SDS011;46042;49.444;6.862;2022-12-10T05:09:18;7.43;;;4.37;;
60169;SDS011;46042;49.444;6.862;2022-12-10T05:11:45;8.77;;;4.83;;
60169;SDS011;46042;49.444;6.862;2022-12-10T05:14:12;10.60;;;4.83;;
60169;SDS011;46042;49.444;6.862;2022-12-10T05:16:40;8.13;;;4.77;;
60169;SDS011;46042;49.444;6.862;2022-12-10T05:19:07;13.00;;;5.03;;
60169;SDS011;46042;49.444;6.862;2022-12-10T05:21:35;8.47;;;4.60;;
60169;SDS011;46042;49.444;6.862;2022-12-10T05:24:21;8.27;;;5.30;;
60169;SDS011;46042;49.444;6.862;2022-12-10T05:26:47;7.93;;;4.57;;
60169;SDS011;46042;49.444;6.862;2022-12-10T05:29:17;8.10;;;4.60;;
60169;SDS011;46042;49.444;6.862;2022-12-10T05:31:45;8.97;;;5.10;;
60169;SDS011;46042;49.444;6.862;2022-12-10T05:34:12;7.40;;;4.07;;
60169;SDS011;46042;49.444;6.862;2022-12-10T05:36:38;11.53;;;5.43;;
60169;SDS011;46042;49.444;6.862;2022-12-10T05:39:05;6.87;;;4.33;;
60169;SDS011;46042;49.444;6.862;2022-12-10T05:41:34;10.90;;;4.87;;
60169;SDS011;46042;49.444;6.862;2022-12-10T05:44:02;8.20;;;4.60;;
60169;SDS011;46042;49.444;6.862;2022-12-10T05:46:29;7.10;;;4.70;;
60169;SDS011;46042;49.444;6.862;2022-12-10T05:48:58;9.47;;;5.63;;
60169;SDS011;46042;49.444;6.862;2022-12-10T05:51:28;8.37;;;5.00;;
60169;SDS011;46042;49.444;6.862;2022-12-10T05:53:56;9.17;;;5.07;;
60169;SDS011;46042;49.444;6.862;2022-12-10T05:56:25;10.17;;;5.87;;
60169;SDS011;46042;49.444;6.862;2022-12-10T05:58:54;8.40;;;5.43;;
60169;SDS011;46042;49.444;6.862;2022-12-10T06:03:52;13.07;;;6.43;;
60169;SDS011;46042;49.444;6.862;2022-12-10T06:06:22;7.43;;;4.40;;
60169;SDS011;46042;49.444;6.862;2022-12-10T06:08:51;7.53;;;4.90;;
60169;SDS011;46042;49.444;6.862;2022-12-10T06:11:18;8.40;;;5.30;;
60169;SDS011;46042;49.444;6.862;2022-12-10T06:13:45;7.63;;;4.37;;
60169;SDS011;46042;49.444;6.862;2022-12-10T06:16:16;11.13;;;5.27;;
60169;SDS011;46042;49.444;6.862;2022-12-10T06:18:43;10.63;;;4.60;;
60169;SDS011;46042;49.444;6.862;2022-12-10T06:21:12;7.80;;;4.80;;
60169;SDS011;46042;49.444;6.862;2022-12-10T06:23:40;9.80;;;5.03;;
60169;SDS011;46042;49.444;6.862;2022-12-10T06:26:08;8.07;;;4.97;;
60169;SDS011;46042;49.444;6.862;2022-12-10T06:28:39;7.40;;;4.40;;
60169;SDS011;46042;49.444;6.862;2022-12-10T06:31:06;9.00;;;4.73;;
60169;SDS011;46042;49.444;6.862;2022-12-10T06:33:33;6.07;;;3.80;;
60169;SDS011;46042;49.444;6.862;2022-12-10T06:36:02;6.17;;;4.33;;
60169;SDS011;46042;49.444;6.862;2022-12-10T06:38:31;6.40;;;4.13;;
60169;SDS011;46042;49.444;6.862;2022-12-10T06:40:58;8.00;;;4.90;;
60169;SDS011;46042;49.444;6.862;2022-12-10T06:43:28;7.33;;;4.60;;
60169;SDS011;46042;49.444;6.862;2022-12-10T06:45:55;8.85;;;4.88;;
60169;SDS011;46042;49.444;6.862;2022-12-10T06:48:22;8.80;;;5.07;;
60169;SDS011;46042;49.444;6.862;2022-12-10T06:50:49;6.40;;;3.93;;
60169;SDS011;46042;49.444;6.862;2022-12-10T06:53:16;8.77;;;4.90;;
60169;SDS011;46042;49.444;6.862;2022-12-10T06:55:42;11.23;;;4.67;;
60169;SDS011;46042;49.444;6.862;2022-12-10T06:58:09;9.43;;;4.77;;
60169;SDS011;46042;49.444;6.862;2022-12-10T07:00:35;8.77;;;4.40;;
60169;SDS011;46042;49.444;6.862;2022-12-10T07:03:02;7.63;;;4.67;;
60169;SDS011;46042;49.444;6.862;2022-12-10T07:05:28;7.97;;;4.87;;
60169;SDS011;46042;49.444;6.862;2022-12-10T07:07:55;9.33;;;4.63;;
60169;SDS011;46042;49.444;6.862;2022-12-10T07:10:22;6.07;;;3.97;;
60169;SDS011;46042;49.444;6.862;2022-12-10T07:12:48;5.67;;;3.83;;
60169;SDS011;46042;49.444;6.862;2022-12-10T07:15:15;7.30;;;4.60;;
60169;SDS011;46042;49.444;6.862;2022-12-10T07:17:42;7.00;;;4.43;;
60169;SDS011;46042;49.444;6.862;2022-12-10T07:20:08;5.70;;;3.87;;
60169;SDS011;46042;49.444;6.862;2022-12-10T07:22:36;8.43;;;5.10;;
60169;SDS011;46042;49.444;6.862;2022-12-10T07:25:03;9.53;;;5.03;;
60169;SDS011;46042;49.444;6.862;2022-12-10T07:27:29;11.60;;;4.93;;
60169;SDS011;46042;49.444;6.862;2022-12-10T07:29:57;8.00;;;4.93;;
60169;SDS011;46042;49.444;6.862;2022-12-10T07:32:24;8.97;;;5.30;;
60169;SDS011;46042;49.444;6.862;2022-12-10T07:34:52;11.33;;;7.10;;
60169;SDS011;46042;49.444;6.862;2022-12-10T07:37:19;7.37;;;3.77;;
60169;SDS011;46042;49.444;6.862;2022-12-10T07:39:45;8.83;;;4.73;;
60169;SDS011;46042;49.444;6.862;2022-12-10T07:42:12;11.13;;;4.30;;
60169;SDS011;46042;49.444;6.862;2022-12-10T07:44:38;7.03;;;4.53;;
60169;SDS011;46042;49.444;6.862;2022-12-10T07:47:08;11.57;;;4.90;;
60169;SDS011;46042;49.444;6.862;2022-12-10T07:49:34;8.53;;;4.93;;
60169;SDS011;46042;49.444;6.862;2022-12-10T07:52:01;8.07;;;4.23;;
60169;SDS011;46042;49.444;6.862;2022-12-10T07:54:27;7.47;;;4.50;;
60169;SDS011;46042;49.444;6.862;2022-12-10T07:56:54;6.40;;;4.27;;
60169;SDS011;46042;49.444;6.862;2022-12-10T07:59:21;9.93;;;4.70;;
60169;SDS011;46042;49.444;6.862;2022-12-10T08:01:47;8.73;;;4.77;;
60169;SDS011;46042;49.444;6.862;2022-12-10T08:04:15;6.83;;;4.30;;
60169;SDS011;46042;49.444;6.862;2022-12-10T08:06:42;6.97;;;4.57;;
60169;SDS011;46042;49.444;6.862;2022-12-10T08:09:09;8.30;;;4.43;;
60169;SDS011;46042;49.444;6.862;2022-12-10T08:11:36;12.97;;;4.77;;
60169;SDS011;46042;49.444;6.862;2022-12-10T08:14:02;8.77;;;4.50;;
60169;SDS011;46042;49.444;6.862;2022-12-10T08:16:29;9.83;;;4.87;;
60169;SDS011;46042;49.444;6.862;2022-12-10T08:18:58;8.67;;;4.53;;
60169;SDS011;46042;49.444;6.862;2022-12-10T08:21:29;8.67;;;4.67;;
60169;SDS011;46042;49.444;6.862;2022-12-10T08:23:57;10.10;;;4.73;;
60169;SDS011;46042;49.444;6.862;2022-12-10T08:26:26;9.10;;;4.97;;
60169;SDS011;46042;49.444;6.862;2022-12-10T08:28:55;7.77;;;4.83;;
60169;SDS011;46042;49.444;6.862;2022-12-10T08:31:23;9.23;;;5.13;;
60169;SDS011;46042;49.444;6.862;2022-12-10T08:33:52;11.77;;;4.80;;
60169;SDS011;46042;49.444;6.862;2022-12-10T08:36:19;11.00;;;5.63;;
60169;SDS011;46042;49.444;6.862;2022-12-10T08:38:46;8.53;;;4.80;;
60169;SDS011;46042;49.444;6.862;2022-12-10T08:41:19;7.77;;;4.90;;
60169;SDS011;46042;49.444;6.862;2022-12-10T08:43:48;8.40;;;5.60;;
60169;SDS011;46042;49.444;6.862;2022-12-10T08:46:18;11.80;;;4.93;;
60169;SDS011;46042;49.444;6.862;2022-12-10T08:48:44;10.77;;;5.83;;
60169;SDS011;46042;49.444;6.862;2022-12-10T08:51:13;10.70;;;6.87;;
60169;SDS011;46042;49.444;6.862;2022-12-10T08:53:42;11.05;;;6.47;;
60169;SDS011;46042;49.444;6.862;2022-12-10T08:56:09;12.37;;;7.47;;
60169;SDS011;46042;49.444;6.862;2022-12-10T08:58:36;13.83;;;7.47;;
60169;SDS011;46042;49.444;6.862;2022-12-10T09:01:07;10.87;;;6.27;;
60169;SDS011;46042;49.444;6.862;2022-12-10T09:03:36;8.67;;;4.90;;
60169;SDS011;46042;49.444;6.862;2022-12-10T09:06:10;10.93;;;5.03;;
60169;SDS011;46042;49.444;6.862;2022-12-10T09:08:39;9.83;;;5.10;;
60169;SDS011;46042;49.444;6.862;2022-12-10T09:11:06;12.30;;;5.33;;
60169;SDS011;46042;49.444;6.862;2022-12-10T09:13:44;11.23;;;5.83;;
60169;SDS011;46042;49.444;6.862;2022-12-10T09:16:11;9.70;;;5.33;;
60169;SDS011;46042;49.444;6.862;2022-12-10T09:18:38;11.00;;;6.13;;
60169;SDS011;46042;49.444;6.862;2022-12-10T09:21:06;8.87;;;5.50;;
60169;SDS011;46042;49.444;6.862;2022-12-10T09:23:33;8.23;;;4.83;;
60169;SDS011;46042;49.444;6.862;2022-12-10T09:26:00;9.90;;;5.17;;
60169;SDS011;46042;49.444;6.862;2022-12-10T09:28:27;8.57;;;4.37;;
60169;SDS011;46042;49.444;6.862;2022-12-10T09:30:55;11.23;;;5.73;;
60169;SDS011;46042;49.444;6.862;2022-12-10T09:33:22;10.00;;;4.67;;
60169;SDS011;46042;49.444;6.862;2022-12-10T09:35:50;12.07;;;5.60;;
60169;SDS011;46042;49.444;6.862;2022-12-10T09:38:16;12.97;;;5.17;;
60169;SDS011;46042;49.444;6.862;2022-12-10T09:40:45;10.73;;;5.47;;
60169;SDS011;46042;49.444;6.862;2022-12-10T09:43:26;9.53;;;5.30;;
60169;SDS011;46042;49.444;6.862;2022-12-10T09:51:42;11.03;;;5.17;;
60169;SDS011;46042;49.444;6.862;2022-12-10T09:54:18;6.47;;;4.23;;
60169;SDS011;46042;49.444;6.862;2022-12-10T09:56:45;9.67;;;5.17;;
60169;SDS011;46042;49.444;6.862;2022-12-10T09:59:17;7.37;;;4.60;;
60169;SDS011;46042;49.444;6.862;2022-12-10T10:01:49;8.90;;;5.03;;
60169;SDS011;46042;49.444;6.862;2022-12-10T10:04:27;8.37;;;4.77;;
60169;SDS011;46042;49.444;6.862;2022-12-10T10:06:54;9.97;;;5.00;;
60169;SDS011;46042;49.444;6.862;2022-12-10T10:09:22;8.90;;;4.60;;
60169;SDS011;46042;49.444;6.862;2022-12-10T10:11:49;10.50;;;5.67;;
60169;SDS011;46042;49.444;6.862;2022-12-10T10:14:24;10.37;;;5.40;;
60169;SDS011;46042;49.444;6.862;2022-12-10T10:16:56;9.63;;;5.07;;
60169;SDS011;46042;49.444;6.862;2022-12-10T10:19:29;11.53;;;5.30;;
60169;SDS011;46042;49.444;6.862;2022-12-10T10:22:04;6.83;;;4.30;;
60169;SDS011;46042;49.444;6.862;2022-12-10T10:24:34;6.83;;;4.20;;
60169;SDS011;46042;49.444;6.862;2022-12-10T10:27:14;7.43;;;4.37;;
60169;SDS011;46042;49.444;6.862;2022-12-10T10:29:49;8.27;;;4.43;;
60169;SDS011;46042;49.444;6.862;2022-12-10T10:32:24;9.37;;;4.77;;
60169;SDS011;46042;49.444;6.862;2022-12-10T10:35:06;7.50;;;4.37;;
60169;SDS011;46042;49.444;6.862;2022-12-10T10:37:45;8.57;;;4.40;;
60169;SDS011;46042;49.444;6.862;2022-12-10T10:40:22;10.20;;;4.53;;
60169;SDS011;46042;49.444;6.862;2022-12-10T10:42:52;7.07;;;4.23;;
60169;SDS011;46042;49.444;6.862;2022-12-10T10:45:32;7.50;;;4.20;;
60169;SDS011;46042;49.444;6.862;2022-12-10T10:50:47;8.17;;;4.60;;
60169;SDS011;46042;49.444;6.862;2022-12-10T10:55:54;7.83;;;4.47;;
60169;SDS011;46042;49.444;6.862;2022-12-10T10:58:23;7.17;;;4.07;;
60169;SDS011;46042;49.444;6.862;2022-12-10T11:00:55;6.77;;;4.20;;
60169;SDS011;46042;49.444;6.862;2022-12-10T11:03:34;7.30;;;4.13;;
60169;SDS011;46042;49.444;6.862;2022-12-10T11:06:04;6.77;;;4.20;;
60169;SDS011;46042;49.444;6.862;2022-12-10T11:08:34;8.63;;;3.97;;
60169;SDS011;46042;49.444;6.862;2022-12-10T11:13:36;8.63;;;4.53;;
60169;SDS011;46042;49.444;6.862;2022-12-10T11:21:31;8.50;;;4.80;;
60169;SDS011;46042;49.444;6.862;2022-12-10T11:24:00;7.30;;;4.60;;
60169;SDS011;46042;49.444;6.862;2022-12-10T11:29:50;8.80;;;4.53;;
60169;SDS011;46042;49.444;6.862;2022-12-10T11:32:45;7.70;;;3.67;;
60169;SDS011;46042;49.444;6.862;2022-12-10T11:38:21;7.37;;;4.30;;
60169;SDS011;46042;49.444;6.862;2022-12-10T11:40:50;7.90;;;4.00;;
60169;SDS011;46042;49.444;6.862;2022-12-10T11:46:21;7.63;;;3.70;;
60169;SDS011;46042;49.444;6.862;2022-12-10T11:51:48;8.10;;;3.80;;
60169;SDS011;46042;49.444;6.862;2022-12-10T12:05:48;7.93;;;4.55;;
60169;SDS011;46042;49.444;6.862;2022-12-10T12:14:01;8.63;;;5.28;;
60169;SDS011;46042;49.444;6.862;2022-12-10T12:16:35;9.43;;;4.95;;
60169;SDS011;46042;49.444;6.862;2022-12-10T12:21:57;9.65;;;5.53;;
60169;SDS011;46042;49.444;6.862;2022-12-10T12:24:34;9.35;;;5.40;;
60169;SDS011;46042;49.444;6.862;2022-12-10T12:27:12;12.43;;;5.55;;
60169;SDS011;46042;49.444;6.862;2022-12-10T12:30:10;8.55;;;4.78;;
60169;SDS011;46042;49.444;6.862;2022-12-10T12:35:18;9.80;;;5.32;;
60169;SDS011;46042;49.444;6.862;2022-12-10T12:37:54;9.75;;;5.45;;
60169;SDS011;46042;49.444;6.862;2022-12-10T12:45:38;10.63;;;6.05;;
60169;SDS011;46042;49.444;6.862;2022-12-10T12:48:20;8.40;;;5.55;;
60169;SDS011;46042;49.444;6.862;2022-12-10T12:50:57;12.00;;;5.40;;
60169;SDS011;46042;49.444;6.862;2022-12-10T12:53:28;8.85;;;5.47;;
60169;SDS011;46042;49.444;6.862;2022-12-10T13:04:02;12.32;;;5.90;;
60169;SDS011;46042;49.444;6.862;2022-12-10T13:06:31;11.73;;;5.97;;
60169;SDS011;46042;49.444;6.862;2022-12-10T13:11:40;9.52;;;5.35;;
60169;SDS011;46042;49.444;6.862;2022-12-10T13:29:48;9.65;;;5.40;;
60169;SDS011;46042;49.444;6.862;2022-12-10T13:42:34;8.10;;;4.28;;
60169;SDS011;46042;49.444;6.862;2022-12-10T13:47:49;10.18;;;4.97;;
60169;SDS011;46042;49.444;6.862;2022-12-10T14:04:00;8.35;;;4.28;;
60169;SDS011;46042;49.444;6.862;2022-12-10T14:06:38;6.45;;;3.78;;
60169;SDS011;46042;49.444;6.862;2022-12-10T14:09:10;7.00;;;3.53;;
60169;SDS011;46042;49.444;6.862;2022-12-10T14:11:46;6.65;;;4.05;;
60169;SDS011;46042;49.444;6.862;2022-12-10T14:14:25;6.18;;;3.65;;
60169;SDS011;46042;49.444;6.862;2022-12-10T14:17:06;6.78;;;3.53;;
60169;SDS011;46042;49.444;6.862;2022-12-10T14:19:39;5.30;;;3.35;;
60169;SDS011;46042;49.444;6.862;2022-12-10T14:22:06;6.47;;;3.33;;
60169;SDS011;46042;49.444;6.862;2022-12-10T14:24:35;4.88;;;2.83;;
60169;SDS011;46042;49.444;6.862;2022-12-10T14:29:48;5.07;;;3.42;;
60169;SDS011;46042;49.444;6.862;2022-12-10T14:32:33;6.97;;;3.47;;
60169;SDS011;46042;49.444;6.862;2022-12-10T14:35:03;4.60;;;2.72;;
60169;SDS011;46042;49.444;6.862;2022-12-10T14:37:34;4.57;;;2.70;;
60169;SDS011;46042;49.444;6.862;2022-12-10T14:40:06;5.55;;;3.38;;
60169;SDS011;46042;49.444;6.862;2022-12-10T14:42:37;6.03;;;3.13;;
60169;SDS011;46042;49.444;6.862;2022-12-10T14:45:05;4.90;;;2.97;;
60169;SDS011;46042;49.444;6.862;2022-12-10T14:47:38;5.30;;;2.47;;
60169;SDS011;46042;49.444;6.862;2022-12-10T14:50:14;5.45;;;2.35;;
60169;SDS011;46042;49.444;6.862;2022-12-10T14:52:49;6.32;;;2.80;;
60169;SDS011;46042;49.444;6.862;2022-12-10T14:55:19;6.47;;;3.15;;
60169;SDS011;46042;49.444;6.862;2022-12-10T14:57:52;6.40;;;2.60;;
60169;SDS011;46042;49.444;6.862;2022-12-10T15:00:22;5.03;;;2.85;;
60169;SDS011;46042;49.444;6.862;2022-12-10T15:05:20;6.13;;;3.05;;
60169;SDS011;46042;49.444;6.862;2022-12-10T15:07:56;5.38;;;3.13;;
60169;SDS011;46042;49.444;6.862;2022-12-10T15:10:28;8.35;;;3.05;;
60169;SDS011;46042;49.444;6.862;2022-12-10T15:13:02;5.13;;;3.00;;
60169;SDS011;46042;49.444;6.862;2022-12-10T15:18:08;4.65;;;2.63;;
60169;SDS011;46042;49.444;6.862;2022-12-10T15:23:11;6.65;;;3.10;;
60169;SDS011;46042;49.444;6.862;2022-12-10T15:28:24;4.90;;;3.33;;
60169;SDS011;46042;49.444;6.862;2022-12-10T15:33:42;6.90;;;3.47;;
60169;SDS011;46042;49.444;6.862;2022-12-10T15:36:15;7.00;;;3.93;;
60169;SDS011;46042;49.444;6.862;2022-12-10T15:38:45;8.37;;;3.47;;
60169;SDS011;46042;49.444;6.862;2022-12-10T15:41:23;7.97;;;3.77;;
60169;SDS011;46042;49.444;6.862;2022-12-10T15:44:04;8.17;;;4.13;;
60169;SDS011;46042;49.444;6.862;2022-12-10T15:46:32;7.33;;;3.53;;
60169;SDS011;46042;49.444;6.862;2022-12-10T15:48:59;5.80;;;3.67;;
60169;SDS011;46042;49.444;6.862;2022-12-10T15:51:25;7.93;;;4.37;;
60169;SDS011;46042;49.444;6.862;2022-12-10T15:53:52;11.87;;;4.23;;
60169;SDS011;46042;49.444;6.862;2022-12-10T15:56:19;8.10;;;4.13;;
60169;SDS011;46042;49.444;6.862;2022-12-10T15:58:46;9.10;;;3.70;;
60169;SDS011;46042;49.444;6.862;2022-12-10T16:01:13;6.33;;;3.20;;
60169;SDS011;46042;49.444;6.862;2022-12-10T16:03:41;7.63;;;4.03;;
60169;SDS011;46042;49.444;6.862;2022-12-10T16:06:08;8.73;;;4.40;;
60169;SDS011;46042;49.444;6.862;2022-12-10T16:08:35;7.00;;;4.60;;
60169;SDS011;46042;49.444;6.862;2022-12-10T16:11:05;14.13;;;5.23;;
60169;SDS011;46042;49.444;6.862;2022-12-10T16:13:41;10.77;;;4.50;;
60169;SDS011;46042;49.444;6.862;2022-12-10T16:16:14;7.73;;;4.00;;
60169;SDS011;46042;49.444;6.862;2022-12-10T16:18:41;8.33;;;4.20;;
60169;SDS011;46042;49.444;6.862;2022-12-10T16:21:08;11.60;;;4.73;;
60169;SDS011;46042;49.444;6.862;2022-12-10T16:23:35;10.20;;;4.00;;
60169;SDS011;46042;49.444;6.862;2022-12-10T16:26:07;7.43;;;3.87;;
60169;SDS011;46042;49.444;6.862;2022-12-10T16:28:40;10.03;;;6.30;;
60169;SDS011;46042;49.444;6.862;2022-12-10T16:31:09;13.63;;;4.83;;
60169;SDS011;46042;49.444;6.862;2022-12-10T16:33:38;7.10;;;4.03;;
60169;SDS011;46042;49.444;6.862;2022-12-10T16:36:04;9.40;;;5.00;;
60169;SDS011;46042;49.444;6.862;2022-12-10T16:38:31;7.47;;;4.37;;
60169;SDS011;46042;49.444;6.862;2022-12-10T16:40:58;7.20;;;4.40;;
60169;SDS011;46042;49.444;6.862;2022-12-10T16:43:28;8.83;;;4.43;;
60169;SDS011;46042;49.444;6.862;2022-12-10T16:45:56;8.93;;;4.90;;
60169;SDS011;46042;49.444;6.862;2022-12-10T16:48:23;7.97;;;4.10;;
60169;SDS011;46042;49.444;6.862;2022-12-10T16:50:50;8.67;;;4.10;;
60169;SDS011;46042;49.444;6.862;2022-12-10T16:53:20;9.53;;;4.80;;
60169;SDS011;46042;49.444;6.862;2022-12-10T16:55:52;7.83;;;4.47;;
60169;SDS011;46042;49.444;6.862;2022-12-10T16:58:23;9.43;;;5.07;;
60169;SDS011;46042;49.444;6.862;2022-12-10T17:00:51;10.43;;;5.37;;
60169;SDS011;46042;49.444;6.862;2022-12-10T17:03:23;9.97;;;5.60;;
60169;SDS011;46042;49.444;6.862;2022-12-10T17:05:58;11.00;;;5.17;;
60169;SDS011;46042;49.444;6.862;2022-12-10T17:08:27;9.60;;;5.40;;
60169;SDS011;46042;49.444;6.862;2022-12-10T17:10:55;10.77;;;5.33;;
60169;SDS011;46042;49.444;6.862;2022-12-10T17:13:41;15.67;;;6.13;;
60169;SDS011;46042;49.444;6.862;2022-12-10T17:16:11;12.07;;;5.30;;
60169;SDS011;46042;49.444;6.862;2022-12-10T17:18:41;13.40;;;6.17;;
60169;SDS011;46042;49.444;6.862;2022-12-10T17:21:07;11.53;;;5.53;;
60169;SDS011;46042;49.444;6.862;2022-12-10T17:23:34;9.37;;;5.23;;